sensor_id;sensor_type;location;lat;lon;timestamp;temperature;humidity
43099;DHT22;28715;51.988;6.020;2023-05-07T00:00:19;16.80;99.90
43099;DHT22;28715;51.988;6.020;2023-05-07T00:02:46;16.80;99.90
43099;DHT22;28715;51.988;6.020;2023-05-07T00:05:11;16.70;99.90
43099;DHT22;28715;51.988;6.020;2023-05-07T00:07:37;16.70;99.90
43099;DHT22;28715;51.988;6.020;2023-05-07T00:10:03;16.70;99.90
43099;DHT22;28715;51.988;6.020;2023-05-07T00:12:29;16.70;99.90
43099;DHT22;28715;51.988;6.020;2023-05-07T00:14:59;16.70;99.90
43099;DHT22;28715;51.988;6.020;2023-05-07T00:17:25;16.70;99.90
43099;DHT22;28715;51.988;6.020;2023-05-07T00:19:50;16.60;99.90
43099;DHT22;28715;51.988;6.020;2023-05-07T00:22:16;16.60;99.90
43099;DHT22;28715;51.988;6.020;2023-05-07T00:24:41;16.60;99.90
43099;DHT22;28715;51.988;6.020;2023-05-07T00:27:07;16.60;99.90
43099;DHT22;28715;51.988;6.020;2023-05-07T00:29:33;16.60;99.90
43099;DHT22;28715;51.988;6.020;2023-05-07T00:31:58;16.50;99.90
43099;DHT22;28715;51.988;6.020;2023-05-07T00:34:24;16.50;99.90
43099;DHT22;28715;51.988;6.020;2023-05-07T00:36:49;16.50;99.90
43099;DHT22;28715;51.988;6.020;2023-05-07T00:39:15;16.50;99.90
43099;DHT22;28715;51.988;6.020;2023-05-07T00:41:41;16.40;99.90
43099;DHT22;28715;51.988;6.020;2023-05-07T00:44:06;16.40;99.90
43099;DHT22;28715;51.988;6.020;2023-05-07T00:46:32;16.40;99.90
43099;DHT22;28715;51.988;6.020;2023-05-07T00:48:58;16.40;99.90
43099;DHT22;28715;51.988;6.020;2023-05-07T00:51:25;16.40;99.90
43099;DHT22;28715;51.988;6.020;2023-05-07T00:53:52;16.40;99.90
43099;DHT22;28715;51.988;6.020;2023-05-07T00:56:19;16.40;99.90
43099;DHT22;28715;51.988;6.020;2023-05-07T00:58:45;16.40;99.90
43099;DHT22;28715;51.988;6.020;2023-05-07T01:01:11;16.30;99.90
43099;DHT22;28715;51.988;6.020;2023-05-07T01:03:37;16.30;99.90
43099;DHT22;28715;51.988;6.020;2023-05-07T01:06:03;16.30;99.90
43099;DHT22;28715;51.988;6.020;2023-05-07T01:08:30;16.30;99.90
43099;DHT22;28715;51.988;6.020;2023-05-07T01:10:57;16.20;99.90
43099;DHT22;28715;51.988;6.020;2023-05-07T01:13:24;16.20;99.90
43099;DHT22;28715;51.988;6.020;2023-05-07T01:15:50;16.20;99.90
43099;DHT22;28715;51.988;6.020;2023-05-07T01:18:16;16.20;99.90
43099;DHT22;28715;51.988;6.020;2023-05-07T01:20:42;16.20;99.90
43099;DHT22;28715;51.988;6.020;2023-05-07T01:23:07;16.20;99.90
43099;DHT22;28715;51.988;6.020;2023-05-07T01:25:34;16.10;99.90
43099;DHT22;28715;51.988;6.020;2023-05-07T01:28:00;16.10;99.90
43099;DHT22;28715;51.988;6.020;2023-05-07T01:30:27;16.10;99.90
43099;DHT22;28715;51.988;6.020;2023-05-07T01:33:06;16.10;99.90
43099;DHT22;28715;51.988;6.020;2023-05-07T01:35:40;16.00;99.90
43099;DHT22;28715;51.988;6.020;2023-05-07T01:38:06;16.00;99.90
43099;DHT22;28715;51.988;6.020;2023-05-07T01:40:33;16.00;99.90
43099;DHT22;28715;51.988;6.020;2023-05-07T01:43:01;16.00;99.90
43099;DHT22;28715;51.988;6.020;2023-05-07T01:45:27;16.00;99.90
43099;DHT22;28715;51.988;6.020;2023-05-07T01:47:53;16.00;99.90
43099;DHT22;28715;51.988;6.020;2023-05-07T01:50:20;15.90;99.90
43099;DHT22;28715;51.988;6.020;2023-05-07T01:52:47;15.90;99.90
43099;DHT22;28715;51.988;6.020;2023-05-07T01:55:12;15.90;99.90
43099;DHT22;28715;51.988;6.020;2023-05-07T01:57:38;15.90;99.90
43099;DHT22;28715;51.988;6.020;2023-05-07T02:00:04;15.90;99.90
43099;DHT22;28715;51.988;6.020;2023-05-07T02:02:30;15.90;99.90
43099;DHT22;28715;51.988;6.020;2023-05-07T02:04:56;15.80;99.90
43099;DHT22;28715;51.988;6.020;2023-05-07T02:07:22;15.80;99.90
43099;DHT22;28715;51.988;6.020;2023-05-07T02:09:47;15.80;99.90
43099;DHT22;28715;51.988;6.020;2023-05-07T02:12:13;15.80;99.90
43099;DHT22;28715;51.988;6.020;2023-05-07T02:14:38;15.80;99.90
43099;DHT22;28715;51.988;6.020;2023-05-07T02:17:04;15.80;99.90
43099;DHT22;28715;51.988;6.020;2023-05-07T02:19:29;15.80;99.90
43099;DHT22;28715;51.988;6.020;2023-05-07T02:21:55;15.80;99.90
43099;DHT22;28715;51.988;6.020;2023-05-07T02:24:20;15.80;99.90
43099;DHT22;28715;51.988;6.020;2023-05-07T02:26:46;15.80;99.90
43099;DHT22;28715;51.988;6.020;2023-05-07T02:29:12;15.80;99.90
43099;DHT22;28715;51.988;6.020;2023-05-07T02:31:37;15.80;99.90
43099;DHT22;28715;51.988;6.020;2023-05-07T02:34:03;15.70;99.90
43099;DHT22;28715;51.988;6.020;2023-05-07T02:36:29;15.80;99.90
43099;DHT22;28715;51.988;6.020;2023-05-07T02:38:54;15.80;99.90
43099;DHT22;28715;51.988;6.020;2023-05-07T02:41:20;15.80;99.90
43099;DHT22;28715;51.988;6.020;2023-05-07T02:43:46;15.80;99.90
43099;DHT22;28715;51.988;6.020;2023-05-07T02:46:11;15.70;99.90
43099;DHT22;28715;51.988;6.020;2023-05-07T02:48:37;15.70;99.90
43099;DHT22;28715;51.988;6.020;2023-05-07T02:51:03;15.70;99.90
43099;DHT22;28715;51.988;6.020;2023-05-07T02:53:29;15.70;99.90
43099;DHT22;28715;51.988;6.020;2023-05-07T02:55:56;15.70;99.90
43099;DHT22;28715;51.988;6.020;2023-05-07T02:58:22;15.70;99.90
43099;DHT22;28715;51.988;6.020;2023-05-07T03:00:47;15.70;99.90
43099;DHT22;28715;51.988;6.020;2023-05-07T03:03:14;15.70;99.90
43099;DHT22;28715;51.988;6.020;2023-05-07T03:05:39;15.70;99.90
43099;DHT22;28715;51.988;6.020;2023-05-07T03:08:05;15.70;99.90
43099;DHT22;28715;51.988;6.020;2023-05-07T03:10:31;15.70;99.90
43099;DHT22;28715;51.988;6.020;2023-05-07T03:12:56;15.70;99.90
43099;DHT22;28715;51.988;6.020;2023-05-07T03:15:22;15.70;99.90
43099;DHT22;28715;51.988;6.020;2023-05-07T03:17:48;15.70;99.90
43099;DHT22;28715;51.988;6.020;2023-05-07T03:20:13;15.70;99.90
43099;DHT22;28715;51.988;6.020;2023-05-07T03:22:39;15.70;99.90
43099;DHT22;28715;51.988;6.020;2023-05-07T03:25:06;15.70;99.90
43099;DHT22;28715;51.988;6.020;2023-05-07T03:27:31;15.70;99.90
43099;DHT22;28715;51.988;6.020;2023-05-07T03:29:57;15.70;99.90
43099;DHT22;28715;51.988;6.020;2023-05-07T03:32:23;15.70;99.90
43099;DHT22;28715;51.988;6.020;2023-05-07T03:34:48;15.70;99.90
43099;DHT22;28715;51.988;6.020;2023-05-07T03:37:14;15.70;99.90
43099;DHT22;28715;51.988;6.020;2023-05-07T03:39:39;15.70;99.90
43099;DHT22;28715;51.988;6.020;2023-05-07T03:42:05;15.70;99.90
43099;DHT22;28715;51.988;6.020;2023-05-07T03:44:30;15.70;99.90
43099;DHT22;28715;51.988;6.020;2023-05-07T03:46:56;15.70;99.90
43099;DHT22;28715;51.988;6.020;2023-05-07T03:49:21;15.70;99.90
43099;DHT22;28715;51.988;6.020;2023-05-07T03:51:47;15.60;99.90
43099;DHT22;28715;51.988;6.020;2023-05-07T03:54:13;15.60;99.90
43099;DHT22;28715;51.988;6.020;2023-05-07T03:56:38;15.60;99.90
43099;DHT22;28715;51.988;6.020;2023-05-07T03:59:04;15.60;99.90
43099;DHT22;28715;51.988;6.020;2023-05-07T04:01:30;15.60;99.90
43099;DHT22;28715;51.988;6.020;2023-05-07T04:03:56;15.60;99.90
43099;DHT22;28715;51.988;6.020;2023-05-07T04:06:22;15.60;99.90
43099;DHT22;28715;51.988;6.020;2023-05-07T04:08:47;15.60;99.90
43099;DHT22;28715;51.988;6.020;2023-05-07T04:11:13;15.60;99.90
43099;DHT22;28715;51.988;6.020;2023-05-07T04:13:38;15.60;99.90
43099;DHT22;28715;51.988;6.020;2023-05-07T04:16:05;15.60;99.90
43099;DHT22;28715;51.988;6.020;2023-05-07T04:18:30;15.70;99.90
43099;DHT22;28715;51.988;6.020;2023-05-07T04:20:56;15.70;99.90
43099;DHT22;28715;51.988;6.020;2023-05-07T04:23:21;15.70;99.90
43099;DHT22;28715;51.988;6.020;2023-05-07T04:25:47;15.70;99.90
43099;DHT22;28715;51.988;6.020;2023-05-07T04:28:13;15.70;99.90
43099;DHT22;28715;51.988;6.020;2023-05-07T04:30:39;15.70;99.90
43099;DHT22;28715;51.988;6.020;2023-05-07T04:33:04;15.70;99.90
43099;DHT22;28715;51.988;6.020;2023-05-07T04:35:32;15.70;99.90
43099;DHT22;28715;51.988;6.020;2023-05-07T04:37:57;15.80;99.90
43099;DHT22;28715;51.988;6.020;2023-05-07T04:40:23;15.80;99.90
43099;DHT22;28715;51.988;6.020;2023-05-07T04:42:48;15.80;99.90
43099;DHT22;28715;51.988;6.020;2023-05-07T04:45:14;15.80;99.90
43099;DHT22;28715;51.988;6.020;2023-05-07T04:47:40;15.80;99.90
43099;DHT22;28715;51.988;6.020;2023-05-07T04:50:06;15.80;99.90
43099;DHT22;28715;51.988;6.020;2023-05-07T04:52:33;15.80;99.90
43099;DHT22;28715;51.988;6.020;2023-05-07T04:55:00;15.80;99.90
43099;DHT22;28715;51.988;6.020;2023-05-07T04:57:26;15.80;99.90
43099;DHT22;28715;51.988;6.020;2023-05-07T04:59:52;15.80;99.90
43099;DHT22;28715;51.988;6.020;2023-05-07T05:02:18;15.90;99.90
43099;DHT22;28715;51.988;6.020;2023-05-07T05:04:43;15.80;99.90
43099;DHT22;28715;51.988;6.020;2023-05-07T05:07:09;15.90;99.90
43099;DHT22;28715;51.988;6.020;2023-05-07T05:09:34;15.90;99.90
43099;DHT22;28715;51.988;6.020;2023-05-07T05:12:01;15.90;99.90
43099;DHT22;28715;51.988;6.020;2023-05-07T05:14:27;15.90;99.90
43099;DHT22;28715;51.988;6.020;2023-05-07T05:16:52;15.90;99.90
43099;DHT22;28715;51.988;6.020;2023-05-07T05:19:18;15.90;99.90
43099;DHT22;28715;51.988;6.020;2023-05-07T05:21:43;15.90;99.90
43099;DHT22;28715;51.988;6.020;2023-05-07T05:24:09;15.90;99.90
43099;DHT22;28715;51.988;6.020;2023-05-07T05:26:35;15.90;99.90
43099;DHT22;28715;51.988;6.020;2023-05-07T05:29:00;16.00;99.90
43099;DHT22;28715;51.988;6.020;2023-05-07T05:31:26;16.00;99.90
43099;DHT22;28715;51.988;6.020;2023-05-07T05:33:52;16.00;99.90
43099;DHT22;28715;51.988;6.020;2023-05-07T05:36:17;16.00;99.90
43099;DHT22;28715;51.988;6.020;2023-05-07T05:38:43;16.00;99.90
43099;DHT22;28715;51.988;6.020;2023-05-07T05:41:09;16.10;99.90
43099;DHT22;28715;51.988;6.020;2023-05-07T05:43:35;16.10;99.90
43099;DHT22;28715;51.988;6.020;2023-05-07T05:46:01;16.10;99.90
43099;DHT22;28715;51.988;6.020;2023-05-07T05:48:26;16.10;99.90
43099;DHT22;28715;51.988;6.020;2023-05-07T05:50:52;16.10;99.90
43099;DHT22;28715;51.988;6.020;2023-05-07T05:53:17;16.10;99.90
43099;DHT22;28715;51.988;6.020;2023-05-07T05:55:43;16.10;99.90
43099;DHT22;28715;51.988;6.020;2023-05-07T05:58:09;16.20;99.90
43099;DHT22;28715;51.988;6.020;2023-05-07T06:00:35;16.20;99.90
43099;DHT22;28715;51.988;6.020;2023-05-07T06:03:00;16.20;99.90
43099;DHT22;28715;51.988;6.020;2023-05-07T06:05:26;16.30;99.90
43099;DHT22;28715;51.988;6.020;2023-05-07T06:07:51;16.30;99.90
43099;DHT22;28715;51.988;6.020;2023-05-07T06:10:17;16.30;99.90
43099;DHT22;28715;51.988;6.020;2023-05-07T06:12:43;16.30;99.90
43099;DHT22;28715;51.988;6.020;2023-05-07T06:15:09;16.30;99.90
43099;DHT22;28715;51.988;6.020;2023-05-07T06:17:34;16.30;99.90
43099;DHT22;28715;51.988;6.020;2023-05-07T06:20:00;16.30;99.90
43099;DHT22;28715;51.988;6.020;2023-05-07T06:22:25;16.30;99.90
43099;DHT22;28715;51.988;6.020;2023-05-07T06:24:51;16.30;99.90
43099;DHT22;28715;51.988;6.020;2023-05-07T06:27:17;16.20;99.90
43099;DHT22;28715;51.988;6.020;2023-05-07T06:29:42;16.30;99.90
43099;DHT22;28715;51.988;6.020;2023-05-07T06:32:09;16.20;99.90
43099;DHT22;28715;51.988;6.020;2023-05-07T06:34:35;16.20;99.90
43099;DHT22;28715;51.988;6.020;2023-05-07T06:37:01;16.20;99.90
43099;DHT22;28715;51.988;6.020;2023-05-07T06:39:27;16.20;99.90
43099;DHT22;28715;51.988;6.020;2023-05-07T06:41:52;16.20;99.90
43099;DHT22;28715;51.988;6.020;2023-05-07T06:44:18;16.20;99.90
43099;DHT22;28715;51.988;6.020;2023-05-07T06:46:43;16.20;99.90
43099;DHT22;28715;51.988;6.020;2023-05-07T06:49:09;16.20;99.90
43099;DHT22;28715;51.988;6.020;2023-05-07T06:51:35;16.20;99.90
43099;DHT22;28715;51.988;6.020;2023-05-07T06:54:00;16.20;99.90
43099;DHT22;28715;51.988;6.020;2023-05-07T06:56:26;16.20;99.90
43099;DHT22;28715;51.988;6.020;2023-05-07T06:58:51;16.30;99.90
43099;DHT22;28715;51.988;6.020;2023-05-07T07:01:17;16.30;99.90
43099;DHT22;28715;51.988;6.020;2023-05-07T07:03:42;16.30;99.90
43099;DHT22;28715;51.988;6.020;2023-05-07T07:06:08;16.40;99.90
43099;DHT22;28715;51.988;6.020;2023-05-07T07:08:33;16.40;99.90
43099;DHT22;28715;51.988;6.020;2023-05-07T07:11:00;16.40;99.90
43099;DHT22;28715;51.988;6.020;2023-05-07T07:13:25;16.50;99.90
43099;DHT22;28715;51.988;6.020;2023-05-07T07:15:51;16.50;99.90
43099;DHT22;28715;51.988;6.020;2023-05-07T07:18:17;16.50;99.90
43099;DHT22;28715;51.988;6.020;2023-05-07T07:20:42;16.60;99.90
43099;DHT22;28715;51.988;6.020;2023-05-07T07:23:09;16.70;99.90
43099;DHT22;28715;51.988;6.020;2023-05-07T07:25:35;16.70;99.90
43099;DHT22;28715;51.988;6.020;2023-05-07T07:28:01;16.80;99.90
43099;DHT22;28715;51.988;6.020;2023-05-07T07:30:26;16.90;99.90
43099;DHT22;28715;51.988;6.020;2023-05-07T07:32:52;17.00;99.90
43099;DHT22;28715;51.988;6.020;2023-05-07T07:35:18;16.90;99.90
43099;DHT22;28715;51.988;6.020;2023-05-07T07:37:43;17.00;99.90
43099;DHT22;28715;51.988;6.020;2023-05-07T07:40:11;17.00;99.90
43099;DHT22;28715;51.988;6.020;2023-05-07T07:42:36;17.10;99.90
43099;DHT22;28715;51.988;6.020;2023-05-07T07:45:02;17.10;99.90
43099;DHT22;28715;51.988;6.020;2023-05-07T07:47:28;17.20;99.90
43099;DHT22;28715;51.988;6.020;2023-05-07T07:49:54;17.20;99.90
43099;DHT22;28715;51.988;6.020;2023-05-07T07:52:19;17.20;99.90
43099;DHT22;28715;51.988;6.020;2023-05-07T07:54:45;17.30;99.90
43099;DHT22;28715;51.988;6.020;2023-05-07T07:57:10;17.30;99.90
43099;DHT22;28715;51.988;6.020;2023-05-07T07:59:36;17.30;99.90
43099;DHT22;28715;51.988;6.020;2023-05-07T08:02:02;17.40;99.90
43099;DHT22;28715;51.988;6.020;2023-05-07T08:04:27;17.40;99.90
43099;DHT22;28715;51.988;6.020;2023-05-07T08:06:53;17.40;99.90
43099;DHT22;28715;51.988;6.020;2023-05-07T08:09:19;17.50;99.90
43099;DHT22;28715;51.988;6.020;2023-05-07T08:11:45;17.50;99.90
43099;DHT22;28715;51.988;6.020;2023-05-07T08:14:11;17.50;99.90
43099;DHT22;28715;51.988;6.020;2023-05-07T08:16:37;17.50;99.90
43099;DHT22;28715;51.988;6.020;2023-05-07T08:19:02;17.60;99.90
43099;DHT22;28715;51.988;6.020;2023-05-07T08:21:28;17.60;99.90
43099;DHT22;28715;51.988;6.020;2023-05-07T08:23:54;17.70;99.90
43099;DHT22;28715;51.988;6.020;2023-05-07T08:26:19;17.80;99.90
43099;DHT22;28715;51.988;6.020;2023-05-07T08:28:45;17.80;99.90
43099;DHT22;28715;51.988;6.020;2023-05-07T08:31:11;17.80;99.90
43099;DHT22;28715;51.988;6.020;2023-05-07T08:33:36;17.80;99.90
43099;DHT22;28715;51.988;6.020;2023-05-07T08:36:04;17.90;99.90
43099;DHT22;28715;51.988;6.020;2023-05-07T08:38:29;18.00;99.90
43099;DHT22;28715;51.988;6.020;2023-05-07T08:40:55;18.00;99.90
43099;DHT22;28715;51.988;6.020;2023-05-07T08:43:21;18.00;99.90
43099;DHT22;28715;51.988;6.020;2023-05-07T08:45:49;18.10;99.90
43099;DHT22;28715;51.988;6.020;2023-05-07T08:48:19;18.10;99.90
43099;DHT22;28715;51.988;6.020;2023-05-07T08:50:47;18.20;99.90
43099;DHT22;28715;51.988;6.020;2023-05-07T08:53:12;18.30;99.90
43099;DHT22;28715;51.988;6.020;2023-05-07T08:55:38;18.30;99.90
43099;DHT22;28715;51.988;6.020;2023-05-07T08:58:04;18.30;99.90
43099;DHT22;28715;51.988;6.020;2023-05-07T09:00:30;18.30;99.90
43099;DHT22;28715;51.988;6.020;2023-05-07T09:02:56;18.40;99.90
43099;DHT22;28715;51.988;6.020;2023-05-07T09:05:21;18.40;99.90
43099;DHT22;28715;51.988;6.020;2023-05-07T09:07:48;18.50;99.90
43099;DHT22;28715;51.988;6.020;2023-05-07T09:10:14;18.60;99.90
43099;DHT22;28715;51.988;6.020;2023-05-07T09:12:40;18.70;99.90
43099;DHT22;28715;51.988;6.020;2023-05-07T09:15:06;18.90;99.90
43099;DHT22;28715;51.988;6.020;2023-05-07T09:17:32;19.00;99.90
43099;DHT22;28715;51.988;6.020;2023-05-07T09:20:05;19.10;99.90
43099;DHT22;28715;51.988;6.020;2023-05-07T09:22:36;19.10;99.90
43099;DHT22;28715;51.988;6.020;2023-05-07T09:25:02;19.20;99.90
43099;DHT22;28715;51.988;6.020;2023-05-07T09:27:27;19.30;99.90
43099;DHT22;28715;51.988;6.020;2023-05-07T09:29:53;19.30;99.90
43099;DHT22;28715;51.988;6.020;2023-05-07T09:32:18;19.40;99.90
43099;DHT22;28715;51.988;6.020;2023-05-07T09:34:44;19.50;99.90
43099;DHT22;28715;51.988;6.020;2023-05-07T09:37:12;19.60;99.90
43099;DHT22;28715;51.988;6.020;2023-05-07T09:39:46;19.80;99.90
43099;DHT22;28715;51.988;6.020;2023-05-07T09:42:12;20.00;99.90
43099;DHT22;28715;51.988;6.020;2023-05-07T09:44:40;20.30;99.90
43099;DHT22;28715;51.988;6.020;2023-05-07T09:47:06;20.50;99.90
43099;DHT22;28715;51.988;6.020;2023-05-07T09:49:37;20.80;99.90
43099;DHT22;28715;51.988;6.020;2023-05-07T09:52:05;21.00;99.90
43099;DHT22;28715;51.988;6.020;2023-05-07T09:54:36;21.10;99.90
43099;DHT22;28715;51.988;6.020;2023-05-07T09:57:04;21.30;99.90
43099;DHT22;28715;51.988;6.020;2023-05-07T09:59:33;21.40;99.90
43099;DHT22;28715;51.988;6.020;2023-05-07T10:02:01;21.50;99.50
43099;DHT22;28715;51.988;6.020;2023-05-07T10:04:27;21.60;99.70
43099;DHT22;28715;51.988;6.020;2023-05-07T10:06:53;21.60;99.40
43099;DHT22;28715;51.988;6.020;2023-05-07T10:09:20;21.70;99.10
43099;DHT22;28715;51.988;6.020;2023-05-07T10:11:49;21.70;99.10
43099;DHT22;28715;51.988;6.020;2023-05-07T10:14:14;21.70;99.00
43099;DHT22;28715;51.988;6.020;2023-05-07T10:16:41;21.70;98.70
43099;DHT22;28715;51.988;6.020;2023-05-07T10:19:08;21.60;98.40
43099;DHT22;28715;51.988;6.020;2023-05-07T10:21:40;21.60;98.60
43099;DHT22;28715;51.988;6.020;2023-05-07T10:24:16;21.60;98.90
43099;DHT22;28715;51.988;6.020;2023-05-07T10:26:48;21.60;98.70
43099;DHT22;28715;51.988;6.020;2023-05-07T10:29:29;21.70;98.60
43099;DHT22;28715;51.988;6.020;2023-05-07T10:34:28;21.80;98.30
43099;DHT22;28715;51.988;6.020;2023-05-07T10:36:55;21.90;98.70
43099;DHT22;28715;51.988;6.020;2023-05-07T10:39:22;22.20;98.70
43099;DHT22;28715;51.988;6.020;2023-05-07T10:41:48;22.40;98.40
43099;DHT22;28715;51.988;6.020;2023-05-07T10:44:28;22.60;98.20
43099;DHT22;28715;51.988;6.020;2023-05-07T10:47:08;22.80;97.80
43099;DHT22;28715;51.988;6.020;2023-05-07T10:52:29;22.90;97.50
43099;DHT22;28715;51.988;6.020;2023-05-07T10:57:46;22.70;96.00
43099;DHT22;28715;51.988;6.020;2023-05-07T11:03:07;22.70;97.30
43099;DHT22;28715;51.988;6.020;2023-05-07T11:05:33;22.70;96.80
43099;DHT22;28715;51.988;6.020;2023-05-07T11:08:01;22.80;96.90
43099;DHT22;28715;51.988;6.020;2023-05-07T11:10:56;23.00;97.30
43099;DHT22;28715;51.988;6.020;2023-05-07T11:13:43;23.20;97.30
43099;DHT22;28715;51.988;6.020;2023-05-07T11:16:23;23.20;96.20
43099;DHT22;28715;51.988;6.020;2023-05-07T11:18:52;23.20;95.90
43099;DHT22;28715;51.988;6.020;2023-05-07T11:23:59;23.20;96.10
43099;DHT22;28715;51.988;6.020;2023-05-07T11:26:27;23.20;95.60
43099;DHT22;28715;51.988;6.020;2023-05-07T11:28:53;23.20;96.10
43099;DHT22;28715;51.988;6.020;2023-05-07T11:31:26;23.20;95.30
43099;DHT22;28715;51.988;6.020;2023-05-07T11:34:05;23.20;96.00
43099;DHT22;28715;51.988;6.020;2023-05-07T11:36:32;23.20;95.60
43099;DHT22;28715;51.988;6.020;2023-05-07T11:38:58;23.10;95.90
43099;DHT22;28715;51.988;6.020;2023-05-07T11:41:33;23.10;95.80
43099;DHT22;28715;51.988;6.020;2023-05-07T11:44:01;23.00;95.90
43099;DHT22;28715;51.988;6.020;2023-05-07T11:46:28;23.00;95.60
43099;DHT22;28715;51.988;6.020;2023-05-07T11:48:54;23.00;95.60
43099;DHT22;28715;51.988;6.020;2023-05-07T11:51:24;22.90;95.80
43099;DHT22;28715;51.988;6.020;2023-05-07T11:53:52;23.00;95.70
43099;DHT22;28715;51.988;6.020;2023-05-07T11:56:18;23.00;95.50
43099;DHT22;28715;51.988;6.020;2023-05-07T11:58:46;23.10;95.60
43099;DHT22;28715;51.988;6.020;2023-05-07T12:01:13;23.20;96.00
43099;DHT22;28715;51.988;6.020;2023-05-07T12:03:43;23.20;95.90
43099;DHT22;28715;51.988;6.020;2023-05-07T12:06:10;23.30;95.50
43099;DHT22;28715;51.988;6.020;2023-05-07T12:08:38;23.30;95.10
43099;DHT22;28715;51.988;6.020;2023-05-07T12:11:07;23.40;94.80
43099;DHT22;28715;51.988;6.020;2023-05-07T12:13:34;23.30;94.10
43099;DHT22;28715;51.988;6.020;2023-05-07T12:15:59;23.30;94.60
43099;DHT22;28715;51.988;6.020;2023-05-07T12:18:25;23.30;94.90
43099;DHT22;28715;51.988;6.020;2023-05-07T12:20:52;23.30;94.50
43099;DHT22;28715;51.988;6.020;2023-05-07T12:23:17;23.20;94.40
43099;DHT22;28715;51.988;6.020;2023-05-07T12:25:43;23.20;94.80
43099;DHT22;28715;51.988;6.020;2023-05-07T12:28:19;23.20;95.10
43099;DHT22;28715;51.988;6.020;2023-05-07T12:30:46;23.20;94.50
43099;DHT22;28715;51.988;6.020;2023-05-07T12:33:14;23.10;93.50
43099;DHT22;28715;51.988;6.020;2023-05-07T12:35:41;22.90;94.20
43099;DHT22;28715;51.988;6.020;2023-05-07T12:38:14;22.80;93.80
43099;DHT22;28715;51.988;6.020;2023-05-07T12:40:54;22.70;94.20
43099;DHT22;28715;51.988;6.020;2023-05-07T12:46:32;22.60;94.20
43099;DHT22;28715;51.988;6.020;2023-05-07T12:49:04;22.60;94.40
43099;DHT22;28715;51.988;6.020;2023-05-07T12:51:30;22.50;94.50
43099;DHT22;28715;51.988;6.020;2023-05-07T12:53:56;22.50;95.10
43099;DHT22;28715;51.988;6.020;2023-05-07T12:56:22;22.50;95.10
43099;DHT22;28715;51.988;6.020;2023-05-07T12:58:48;22.40;94.90
43099;DHT22;28715;51.988;6.020;2023-05-07T13:01:15;22.40;95.80
43099;DHT22;28715;51.988;6.020;2023-05-07T13:03:48;22.30;96.00
43099;DHT22;28715;51.988;6.020;2023-05-07T13:06:15;22.30;96.00
43099;DHT22;28715;51.988;6.020;2023-05-07T13:08:41;22.20;95.60
43099;DHT22;28715;51.988;6.020;2023-05-07T13:11:10;22.20;96.40
43099;DHT22;28715;51.988;6.020;2023-05-07T13:13:37;22.10;96.40
43099;DHT22;28715;51.988;6.020;2023-05-07T13:16:04;22.00;96.60
43099;DHT22;28715;51.988;6.020;2023-05-07T13:18:41;21.90;97.20
43099;DHT22;28715;51.988;6.020;2023-05-07T13:21:08;21.80;98.50
43099;DHT22;28715;51.988;6.020;2023-05-07T13:23:35;21.60;98.60
43099;DHT22;28715;51.988;6.020;2023-05-07T13:26:01;21.40;98.50
43099;DHT22;28715;51.988;6.020;2023-05-07T13:28:26;21.30;98.80
43099;DHT22;28715;51.988;6.020;2023-05-07T13:30:53;21.20;99.30
43099;DHT22;28715;51.988;6.020;2023-05-07T13:33:19;21.10;99.60
43099;DHT22;28715;51.988;6.020;2023-05-07T13:35:45;21.10;99.90
43099;DHT22;28715;51.988;6.020;2023-05-07T13:38:10;21.10;99.90
43099;DHT22;28715;51.988;6.020;2023-05-07T13:40:36;21.20;99.90
43099;DHT22;28715;51.988;6.020;2023-05-07T13:43:01;21.20;99.90
43099;DHT22;28715;51.988;6.020;2023-05-07T13:45:28;21.20;99.90
43099;DHT22;28715;51.988;6.020;2023-05-07T13:47:55;21.30;99.90
43099;DHT22;28715;51.988;6.020;2023-05-07T13:50:21;21.30;99.90
43099;DHT22;28715;51.988;6.020;2023-05-07T13:52:47;21.40;99.90
43099;DHT22;28715;51.988;6.020;2023-05-07T13:55:20;21.50;99.90
43099;DHT22;28715;51.988;6.020;2023-05-07T13:57:46;21.60;99.90
43099;DHT22;28715;51.988;6.020;2023-05-07T14:00:13;21.70;99.90
43099;DHT22;28715;51.988;6.020;2023-05-07T14:02:40;21.80;99.90
43099;DHT22;28715;51.988;6.020;2023-05-07T14:05:06;22.10;99.90
43099;DHT22;28715;51.988;6.020;2023-05-07T14:07:31;22.20;99.90
43099;DHT22;28715;51.988;6.020;2023-05-07T14:09:57;22.30;99.90
43099;DHT22;28715;51.988;6.020;2023-05-07T14:12:23;22.30;99.90
43099;DHT22;28715;51.988;6.020;2023-05-07T14:14:48;22.30;99.90
43099;DHT22;28715;51.988;6.020;2023-05-07T14:17:18;22.30;99.90
43099;DHT22;28715;51.988;6.020;2023-05-07T14:19:45;22.30;99.90
43099;DHT22;28715;51.988;6.020;2023-05-07T14:22:13;22.30;98.80
43099;DHT22;28715;51.988;6.020;2023-05-07T14:24:39;22.10;98.60
43099;DHT22;28715;51.988;6.020;2023-05-07T14:27:05;22.00;98.50
43099;DHT22;28715;51.988;6.020;2023-05-07T14:29:31;21.80;97.80
43099;DHT22;28715;51.988;6.020;2023-05-07T14:31:56;21.70;98.20
43099;DHT22;28715;51.988;6.020;2023-05-07T14:34:22;21.60;97.50
43099;DHT22;28715;51.988;6.020;2023-05-07T14:36:47;21.40;97.30
43099;DHT22;28715;51.988;6.020;2023-05-07T14:39:13;21.20;97.70
43099;DHT22;28715;51.988;6.020;2023-05-07T14:41:39;21.20;98.20
43099;DHT22;28715;51.988;6.020;2023-05-07T14:44:04;21.10;98.90
43099;DHT22;28715;51.988;6.020;2023-05-07T14:46:30;21.00;99.10
43099;DHT22;28715;51.988;6.020;2023-05-07T14:48:57;21.00;99.40
43099;DHT22;28715;51.988;6.020;2023-05-07T14:51:22;21.00;99.50
43099;DHT22;28715;51.988;6.020;2023-05-07T14:53:50;21.10;99.70
43099;DHT22;28715;51.988;6.020;2023-05-07T14:56:15;21.00;99.40
43099;DHT22;28715;51.988;6.020;2023-05-07T14:58:42;21.00;99.00
43099;DHT22;28715;51.988;6.020;2023-05-07T15:01:08;20.80;98.10
43099;DHT22;28715;51.988;6.020;2023-05-07T15:03:34;20.70;97.60
43099;DHT22;28715;51.988;6.020;2023-05-07T15:05:59;20.60;98.30
43099;DHT22;28715;51.988;6.020;2023-05-07T15:08:25;20.50;98.40
43099;DHT22;28715;51.988;6.020;2023-05-07T15:10:51;20.40;98.10
43099;DHT22;28715;51.988;6.020;2023-05-07T15:13:17;20.40;98.80
43099;DHT22;28715;51.988;6.020;2023-05-07T15:15:44;20.40;98.80
43099;DHT22;28715;51.988;6.020;2023-05-07T15:18:09;20.40;98.80
43099;DHT22;28715;51.988;6.020;2023-05-07T15:20:36;20.30;98.70
43099;DHT22;28715;51.988;6.020;2023-05-07T15:23:01;20.30;98.50
43099;DHT22;28715;51.988;6.020;2023-05-07T15:25:28;20.20;98.70
43099;DHT22;28715;51.988;6.020;2023-05-07T15:27:53;20.20;98.00
43099;DHT22;28715;51.988;6.020;2023-05-07T15:30:19;20.10;97.90
43099;DHT22;28715;51.988;6.020;2023-05-07T15:32:46;20.10;97.00
43099;DHT22;28715;51.988;6.020;2023-05-07T15:35:12;20.00;97.00
43099;DHT22;28715;51.988;6.020;2023-05-07T15:37:37;20.00;97.00
43099;DHT22;28715;51.988;6.020;2023-05-07T15:40:03;20.00;96.90
43099;DHT22;28715;51.988;6.020;2023-05-07T15:42:30;19.90;97.00